sensor_id;sensor_type;location;lat;lon;timestamp;P1;durP1;ratioP1;P2;durP2;ratioP2
48859;SDS011;34679;51.436;-2.518;2023-08-21T00:02:23;13.57;;;3.22;;
48859;SDS011;34679;51.436;-2.518;2023-08-21T00:04:52;13.80;;;3.45;;
48859;SDS011;34679;51.436;-2.518;2023-08-21T00:07:18;6.80;;;3.30;;
48859;SDS011;34679;51.436;-2.518;2023-08-21T00:09:44;10.93;;;3.03;;
48859;SDS011;34679;51.436;-2.518;2023-08-21T00:12:10;12.00;;;3.72;;
48859;SDS011;34679;51.436;-2.518;2023-08-21T00:14:36;10.77;;;2.88;;
48859;SDS011;34679;51.436;-2.518;2023-08-21T00:17:02;13.32;;;3.15;;
48859;SDS011;34679;51.436;-2.518;2023-08-21T00:19:28;9.30;;;3.65;;
48859;SDS011;34679;51.436;-2.518;2023-08-21T00:21:54;16.75;;;3.10;;
48859;SDS011;34679;51.436;-2.518;2023-08-21T00:24:20;9.48;;;2.80;;
48859;SDS011;34679;51.436;-2.518;2023-08-21T00:26:46;7.57;;;2.75;;
48859;SDS011;34679;51.436;-2.518;2023-08-21T00:29:11;9.48;;;3.17;;
48859;SDS011;34679;51.436;-2.518;2023-08-21T00:31:37;14.57;;;3.42;;
48859;SDS011;34679;51.436;-2.518;2023-08-21T00:34:03;10.00;;;3.60;;
48859;SDS011;34679;51.436;-2.518;2023-08-21T00:36:29;5.68;;;2.85;;
48859;SDS011;34679;51.436;-2.518;2023-08-21T00:38:54;12.40;;;3.50;;
48859;SDS011;34679;51.436;-2.518;2023-08-21T00:41:20;17.50;;;3.83;;
48859;SDS011;34679;51.436;-2.518;2023-08-21T00:43:46;9.68;;;3.55;;
48859;SDS011;34679;51.436;-2.518;2023-08-21T00:46:11;12.10;;;4.10;;
48859;SDS011;34679;51.436;-2.518;2023-08-21T00:48:38;9.45;;;3.42;;
48859;SDS011;34679;51.436;-2.518;2023-08-21T00:51:04;8.75;;;3.67;;
48859;SDS011;34679;51.436;-2.518;2023-08-21T00:53:31;6.07;;;2.80;;
48859;SDS011;34679;51.436;-2.518;2023-08-21T00:55:58;9.98;;;3.10;;
48859;SDS011;34679;51.436;-2.518;2023-08-21T00:58:23;13.10;;;3.22;;
48859;SDS011;34679;51.436;-2.518;2023-08-21T01:00:49;7.90;;;2.85;;
48859;SDS011;34679;51.436;-2.518;2023-08-21T01:03:17;12.73;;;3.38;;
48859;SDS011;34679;51.436;-2.518;2023-08-21T01:05:44;7.38;;;2.90;;
48859;SDS011;34679;51.436;-2.518;2023-08-21T01:13:48;6.90;;;3.35;;
48859;SDS011;34679;51.436;-2.518;2023-08-21T01:16:37;12.70;;;4.70;;
48859;SDS011;34679;51.436;-2.518;2023-08-21T01:19:03;9.07;;;3.05;;
48859;SDS011;34679;51.436;-2.518;2023-08-21T01:21:34;7.78;;;3.25;;
48859;SDS011;34679;51.436;-2.518;2023-08-21T01:23:59;13.50;;;3.13;;
48859;SDS011;34679;51.436;-2.518;2023-08-21T01:26:25;8.07;;;3.55;;
48859;SDS011;34679;51.436;-2.518;2023-08-21T01:28:51;15.02;;;3.38;;
48859;SDS011;34679;51.436;-2.518;2023-08-21T01:31:18;10.43;;;3.15;;
48859;SDS011;34679;51.436;-2.518;2023-08-21T01:33:53;13.82;;;4.25;;
48859;SDS011;34679;51.436;-2.518;2023-08-21T01:36:23;11.25;;;3.92;;
48859;SDS011;34679;51.436;-2.518;2023-08-21T01:38:50;14.75;;;4.30;;
48859;SDS011;34679;51.436;-2.518;2023-08-21T01:41:16;11.82;;;3.63;;
48859;SDS011;34679;51.436;-2.518;2023-08-21T01:43:41;10.75;;;5.38;;
48859;SDS011;34679;51.436;-2.518;2023-08-21T01:46:07;11.70;;;4.15;;
48859;SDS011;34679;51.436;-2.518;2023-08-21T01:48:33;11.80;;;3.78;;
48859;SDS011;34679;51.436;-2.518;2023-08-21T01:51:02;14.98;;;4.97;;
48859;SDS011;34679;51.436;-2.518;2023-08-21T01:53:28;10.20;;;3.75;;
48859;SDS011;34679;51.436;-2.518;2023-08-21T01:55:54;6.20;;;3.85;;
48859;SDS011;34679;51.436;-2.518;2023-08-21T01:58:19;7.60;;;3.72;;
48859;SDS011;34679;51.436;-2.518;2023-08-21T02:00:46;8.70;;;4.00;;
48859;SDS011;34679;51.436;-2.518;2023-08-21T02:03:12;9.40;;;4.13;;
48859;SDS011;34679;51.436;-2.518;2023-08-21T02:05:38;10.35;;;4.68;;
48859;SDS011;34679;51.436;-2.518;2023-08-21T02:08:09;10.40;;;3.83;;
48859;SDS011;34679;51.436;-2.518;2023-08-21T02:10:37;8.43;;;4.03;;
48859;SDS011;34679;51.436;-2.518;2023-08-21T02:13:02;9.45;;;4.93;;
48859;SDS011;34679;51.436;-2.518;2023-08-21T02:15:28;8.13;;;4.03;;
48859;SDS011;34679;51.436;-2.518;2023-08-21T02:17:54;11.75;;;4.43;;
48859;SDS011;34679;51.436;-2.518;2023-08-21T02:20:20;11.43;;;3.78;;
48859;SDS011;34679;51.436;-2.518;2023-08-21T02:22:47;11.68;;;4.38;;
48859;SDS011;34679;51.436;-2.518;2023-08-21T02:25:12;13.15;;;4.60;;
48859;SDS011;34679;51.436;-2.518;2023-08-21T02:27:38;12.00;;;4.40;;
48859;SDS011;34679;51.436;-2.518;2023-08-21T02:30:04;11.85;;;4.30;;
48859;SDS011;34679;51.436;-2.518;2023-08-21T02:32:30;8.98;;;4.05;;
48859;SDS011;34679;51.436;-2.518;2023-08-21T02:34:56;10.57;;;5.13;;
48859;SDS011;34679;51.436;-2.518;2023-08-21T02:37:21;12.40;;;4.82;;
48859;SDS011;34679;51.436;-2.518;2023-08-21T02:39:47;13.63;;;4.80;;
48859;SDS011;34679;51.436;-2.518;2023-08-21T02:42:13;13.23;;;4.57;;
48859;SDS011;34679;51.436;-2.518;2023-08-21T02:44:38;13.48;;;4.97;;
48859;SDS011;34679;51.436;-2.518;2023-08-21T02:47:04;9.55;;;4.72;;
48859;SDS011;34679;51.436;-2.518;2023-08-21T02:49:30;9.23;;;4.53;;
48859;SDS011;34679;51.436;-2.518;2023-08-21T02:51:55;10.65;;;4.80;;
48859;SDS011;34679;51.436;-2.518;2023-08-21T02:54:21;13.55;;;5.18;;
48859;SDS011;34679;51.436;-2.518;2023-08-21T02:56:47;18.80;;;5.10;;
48859;SDS011;34679;51.436;-2.518;2023-08-21T02:59:13;15.02;;;5.50;;
48859;SDS011;34679;51.436;-2.518;2023-08-21T03:01:38;10.82;;;5.10;;
48859;SDS011;34679;51.436;-2.518;2023-08-21T03:04:04;14.93;;;5.40;;
48859;SDS011;34679;51.436;-2.518;2023-08-21T03:06:30;15.18;;;5.78;;
48859;SDS011;34679;51.436;-2.518;2023-08-21T03:08:55;9.40;;;5.68;;
48859;SDS011;34679;51.436;-2.518;2023-08-21T03:11:21;16.27;;;6.15;;
48859;SDS011;34679;51.436;-2.518;2023-08-21T03:13:47;19.63;;;6.30;;
48859;SDS011;34679;51.436;-2.518;2023-08-21T03:16:12;11.73;;;6.20;;
48859;SDS011;34679;51.436;-2.518;2023-08-21T03:18:53;13.18;;;6.20;;
48859;SDS011;34679;51.436;-2.518;2023-08-21T03:21:20;20.25;;;6.13;;
48859;SDS011;34679;51.436;-2.518;2023-08-21T03:23:49;14.27;;;6.10;;
48859;SDS011;34679;51.436;-2.518;2023-08-21T03:26:16;15.90;;;5.97;;
48859;SDS011;34679;51.436;-2.518;2023-08-21T03:28:42;15.25;;;5.85;;
48859;SDS011;34679;51.436;-2.518;2023-08-21T03:31:07;15.23;;;6.07;;
48859;SDS011;34679;51.436;-2.518;2023-08-21T03:33:33;11.25;;;5.55;;
48859;SDS011;34679;51.436;-2.518;2023-08-21T03:35:59;11.30;;;5.43;;
48859;SDS011;34679;51.436;-2.518;2023-08-21T03:38:24;15.50;;;5.75;;
48859;SDS011;34679;51.436;-2.518;2023-08-21T03:40:50;13.98;;;6.93;;
48859;SDS011;34679;51.436;-2.518;2023-08-21T03:43:16;15.43;;;5.05;;
48859;SDS011;34679;51.436;-2.518;2023-08-21T03:45:41;11.82;;;5.90;;
48859;SDS011;34679;51.436;-2.518;2023-08-21T03:48:07;10.70;;;5.30;;
48859;SDS011;34679;51.436;-2.518;2023-08-21T03:50:32;12.20;;;5.60;;
48859;SDS011;34679;51.436;-2.518;2023-08-21T03:52:58;17.05;;;5.30;;
48859;SDS011;34679;51.436;-2.518;2023-08-21T03:55:24;12.40;;;4.95;;
48859;SDS011;34679;51.436;-2.518;2023-08-21T03:57:49;8.75;;;5.20;;
48859;SDS011;34679;51.436;-2.518;2023-08-21T04:00:15;15.43;;;6.43;;
48859;SDS011;34679;51.436;-2.518;2023-08-21T04:02:41;12.75;;;5.10;;
48859;SDS011;34679;51.436;-2.518;2023-08-21T04:05:07;17.52;;;5.38;;
48859;SDS011;34679;51.436;-2.518;2023-08-21T04:07:33;13.38;;;4.88;;
48859;SDS011;34679;51.436;-2.518;2023-08-21T04:09:58;16.05;;;5.00;;
48859;SDS011;34679;51.436;-2.518;2023-08-21T04:12:24;16.45;;;6.10;;
48859;SDS011;34679;51.436;-2.518;2023-08-21T04:14:50;15.07;;;4.88;;
48859;SDS011;34679;51.436;-2.518;2023-08-21T04:17:20;11.88;;;4.63;;
48859;SDS011;34679;51.436;-2.518;2023-08-21T04:19:46;5.90;;;4.30;;
48859;SDS011;34679;51.436;-2.518;2023-08-21T04:22:12;12.20;;;4.18;;
48859;SDS011;34679;51.436;-2.518;2023-08-21T04:24:38;14.15;;;4.78;;
48859;SDS011;34679;51.436;-2.518;2023-08-21T04:27:05;12.90;;;4.78;;
48859;SDS011;34679;51.436;-2.518;2023-08-21T04:29:30;11.88;;;4.78;;
48859;SDS011;34679;51.436;-2.518;2023-08-21T04:31:56;5.68;;;4.60;;
48859;SDS011;34679;51.436;-2.518;2023-08-21T04:34:22;16.05;;;5.05;;
48859;SDS011;34679;51.436;-2.518;2023-08-21T04:36:47;10.93;;;4.50;;
48859;SDS011;34679;51.436;-2.518;2023-08-21T04:39:14;8.70;;;4.43;;
48859;SDS011;34679;51.436;-2.518;2023-08-21T04:41:40;10.88;;;4.70;;
48859;SDS011;34679;51.436;-2.518;2023-08-21T04:44:06;11.88;;;4.63;;
48859;SDS011;34679;51.436;-2.518;2023-08-21T04:46:32;15.43;;;5.90;;
48859;SDS011;34679;51.436;-2.518;2023-08-21T04:48:58;16.25;;;5.60;;
48859;SDS011;34679;51.436;-2.518;2023-08-21T04:51:23;12.35;;;4.63;;
48859;SDS011;34679;51.436;-2.518;2023-08-21T04:53:49;14.05;;;4.50;;
48859;SDS011;34679;51.436;-2.518;2023-08-21T04:56:15;9.02;;;4.40;;
48859;SDS011;34679;51.436;-2.518;2023-08-21T04:58:40;12.52;;;5.20;;
48859;SDS011;34679;51.436;-2.518;2023-08-21T05:01:06;15.25;;;4.88;;
48859;SDS011;34679;51.436;-2.518;2023-08-21T05:03:32;16.92;;;5.25;;
48859;SDS011;34679;51.436;-2.518;2023-08-21T05:05:57;12.10;;;4.85;;
48859;SDS011;34679;51.436;-2.518;2023-08-21T05:08:24;11.70;;;5.22;;
48859;SDS011;34679;51.436;-2.518;2023-08-21T05:10:54;15.48;;;7.38;;
48859;SDS011;34679;51.436;-2.518;2023-08-21T05:13:23;14.93;;;5.80;;
48859;SDS011;34679;51.436;-2.518;2023-08-21T05:15:55;11.25;;;4.78;;
48859;SDS011;34679;51.436;-2.518;2023-08-21T05:18:22;11.23;;;5.13;;
48859;SDS011;34679;51.436;-2.518;2023-08-21T05:20:49;11.00;;;4.93;;
48859;SDS011;34679;51.436;-2.518;2023-08-21T05:23:15;11.32;;;4.90;;
48859;SDS011;34679;51.436;-2.518;2023-08-21T05:25:45;9.13;;;5.55;;
48859;SDS011;34679;51.436;-2.518;2023-08-21T05:28:12;16.35;;;5.55;;
48859;SDS011;34679;51.436;-2.518;2023-08-21T05:30:38;15.15;;;5.25;;
48859;SDS011;34679;51.436;-2.518;2023-08-21T05:33:03;17.20;;;6.43;;
48859;SDS011;34679;51.436;-2.518;2023-08-21T05:35:33;9.48;;;4.95;;
48859;SDS011;34679;51.436;-2.518;2023-08-21T05:38:00;14.95;;;5.35;;
48859;SDS011;34679;51.436;-2.518;2023-08-21T05:40:31;15.00;;;4.53;;
48859;SDS011;34679;51.436;-2.518;2023-08-21T05:42:57;12.45;;;4.78;;
48859;SDS011;34679;51.436;-2.518;2023-08-21T05:45:23;13.57;;;4.47;;
48859;SDS011;34679;51.436;-2.518;2023-08-21T05:47:48;12.63;;;3.72;;
48859;SDS011;34679;51.436;-2.518;2023-08-21T05:50:14;13.05;;;3.78;;
48859;SDS011;34679;51.436;-2.518;2023-08-21T05:52:40;10.35;;;3.42;;
48859;SDS011;34679;51.436;-2.518;2023-08-21T05:55:05;10.68;;;3.70;;
48859;SDS011;34679;51.436;-2.518;2023-08-21T05:57:31;15.55;;;4.13;;
48859;SDS011;34679;51.436;-2.518;2023-08-21T05:59:57;13.98;;;4.05;;
48859;SDS011;34679;51.436;-2.518;2023-08-21T06:02:23;10.00;;;3.88;;
48859;SDS011;34679;51.436;-2.518;2023-08-21T06:04:48;12.18;;;5.40;;
48859;SDS011;34679;51.436;-2.518;2023-08-21T06:07:14;8.63;;;3.60;;
48859;SDS011;34679;51.436;-2.518;2023-08-21T06:09:40;7.18;;;3.67;;
48859;SDS011;34679;51.436;-2.518;2023-08-21T06:12:06;10.55;;;2.95;;
48859;SDS011;34679;51.436;-2.518;2023-08-21T06:14:32;7.55;;;2.47;;
48859;SDS011;34679;51.436;-2.518;2023-08-21T06:16:59;7.25;;;2.28;;
48859;SDS011;34679;51.436;-2.518;2023-08-21T06:19:26;9.80;;;2.35;;
48859;SDS011;34679;51.436;-2.518;2023-08-21T06:21:52;11.07;;;3.78;;
48859;SDS011;34679;51.436;-2.518;2023-08-21T06:24:18;8.55;;;2.90;;
48859;SDS011;34679;51.436;-2.518;2023-08-21T06:26:44;6.00;;;2.30;;
48859;SDS011;34679;51.436;-2.518;2023-08-21T06:29:10;8.27;;;2.25;;
48859;SDS011;34679;51.436;-2.518;2023-08-21T06:31:35;12.85;;;2.50;;
48859;SDS011;34679;51.436;-2.518;2023-08-21T06:34:01;8.07;;;1.80;;
48859;SDS011;34679;51.436;-2.518;2023-08-21T06:36:27;8.50;;;1.60;;
48859;SDS011;34679;51.436;-2.518;2023-08-21T06:38:52;8.20;;;2.33;;
48859;SDS011;34679;51.436;-2.518;2023-08-21T06:41:18;9.52;;;2.28;;
48859;SDS011;34679;51.436;-2.518;2023-08-21T06:43:45;7.20;;;2.72;;
48859;SDS011;34679;51.436;-2.518;2023-08-21T06:46:10;7.90;;;1.77;;
48859;SDS011;34679;51.436;-2.518;2023-08-21T06:48:37;3.47;;;1.65;;
48859;SDS011;34679;51.436;-2.518;2023-08-21T06:51:05;9.10;;;2.05;;
48859;SDS011;34679;51.436;-2.518;2023-08-21T06:53:31;6.35;;;2.03;;
48859;SDS011;34679;51.436;-2.518;2023-08-21T06:55:57;4.22;;;1.75;;
48859;SDS011;34679;51.436;-2.518;2023-08-21T06:58:23;5.38;;;2.42;;
48859;SDS011;34679;51.436;-2.518;2023-08-21T07:00:49;7.05;;;2.17;;
48859;SDS011;34679;51.436;-2.518;2023-08-21T07:03:14;8.25;;;2.00;;
48859;SDS011;34679;51.436;-2.518;2023-08-21T07:05:40;6.60;;;2.22;;
48859;SDS011;34679;51.436;-2.518;2023-08-21T07:08:06;8.77;;;1.83;;
48859;SDS011;34679;51.436;-2.518;2023-08-21T07:10:38;7.15;;;3.65;;
48859;SDS011;34679;51.436;-2.518;2023-08-21T07:13:04;7.70;;;2.10;;
48859;SDS011;34679;51.436;-2.518;2023-08-21T07:15:29;11.10;;;2.35;;
48859;SDS011;34679;51.436;-2.518;2023-08-21T07:17:55;7.05;;;2.05;;
48859;SDS011;34679;51.436;-2.518;2023-08-21T07:20:21;9.95;;;2.08;;
48859;SDS011;34679;51.436;-2.518;2023-08-21T07:22:47;7.53;;;2.10;;
48859;SDS011;34679;51.436;-2.518;2023-08-21T07:25:13;3.95;;;2.20;;
48859;SDS011;34679;51.436;-2.518;2023-08-21T07:27:38;6.20;;;1.90;;
48859;SDS011;34679;51.436;-2.518;2023-08-21T07:30:05;5.13;;;1.80;;
48859;SDS011;34679;51.436;-2.518;2023-08-21T07:32:31;9.80;;;2.50;;
48859;SDS011;34679;51.436;-2.518;2023-08-21T07:34:57;10.82;;;2.55;;
48859;SDS011;34679;51.436;-2.518;2023-08-21T07:37:23;10.35;;;2.35;;
48859;SDS011;34679;51.436;-2.518;2023-08-21T07:39:48;14.10;;;2.17;;
48859;SDS011;34679;51.436;-2.518;2023-08-21T07:42:14;5.20;;;1.80;;
48859;SDS011;34679;51.436;-2.518;2023-08-21T07:44:40;4.70;;;1.65;;
48859;SDS011;34679;51.436;-2.518;2023-08-21T07:47:06;9.82;;;2.05;;
48859;SDS011;34679;51.436;-2.518;2023-08-21T07:49:32;6.80;;;1.88;;
48859;SDS011;34679;51.436;-2.518;2023-08-21T07:51:58;11.15;;;2.00;;
48859;SDS011;34679;51.436;-2.518;2023-08-21T07:54:24;6.20;;;1.20;;
48859;SDS011;34679;51.436;-2.518;2023-08-21T07:56:50;7.90;;;1.98;;
48859;SDS011;34679;51.436;-2.518;2023-08-21T07:59:16;6.38;;;2.10;;
48859;SDS011;34679;51.436;-2.518;2023-08-21T08:01:42;5.60;;;1.55;;
48859;SDS011;34679;51.436;-2.518;2023-08-21T08:04:08;9.88;;;1.33;;
48859;SDS011;34679;51.436;-2.518;2023-08-21T08:06:33;6.82;;;1.10;;
48859;SDS011;34679;51.436;-2.518;2023-08-21T08:09:00;6.28;;;1.33;;
48859;SDS011;34679;51.436;-2.518;2023-08-21T08:11:25;6.60;;;1.10;;
48859;SDS011;34679;51.436;-2.518;2023-08-21T08:13:51;4.47;;;1.48;;
48859;SDS011;34679;51.436;-2.518;2023-08-21T08:16:17;4.40;;;1.17;;
48859;SDS011;34679;51.436;-2.518;2023-08-21T08:18:42;5.25;;;1.02;;
48859;SDS011;34679;51.436;-2.518;2023-08-21T08:21:08;3.28;;;0.93;;
48859;SDS011;34679;51.436;-2.518;2023-08-21T08:23:35;5.80;;;1.13;;
48859;SDS011;34679;51.436;-2.518;2023-08-21T08:26:01;2.63;;;0.73;;
48859;SDS011;34679;51.436;-2.518;2023-08-21T08:28:27;5.95;;;1.27;;
48859;SDS011;34679;51.436;-2.518;2023-08-21T08:30:53;3.58;;;1.00;;
48859;SDS011;34679;51.436;-2.518;2023-08-21T08:33:19;2.90;;;0.80;;
48859;SDS011;34679;51.436;-2.518;2023-08-21T08:35:45;5.20;;;1.02;;
48859;SDS011;34679;51.436;-2.518;2023-08-21T08:38:11;4.60;;;1.20;;
48859;SDS011;34679;51.436;-2.518;2023-08-21T08:40:37;2.92;;;0.70;;
48859;SDS011;34679;51.436;-2.518;2023-08-21T08:43:08;2.25;;;0.57;;
48859;SDS011;34679;51.436;-2.518;2023-08-21T08:45:36;6.07;;;1.45;;
48859;SDS011;34679;51.436;-2.518;2023-08-21T08:48:04;5.80;;;1.00;;
48859;SDS011;34679;51.436;-2.518;2023-08-21T08:50:30;4.53;;;0.93;;
48859;SDS011;34679;51.436;-2.518;2023-08-21T08:52:58;3.35;;;1.10;;
48859;SDS011;34679;51.436;-2.518;2023-08-21T08:55:24;5.78;;;0.90;;
48859;SDS011;34679;51.436;-2.518;2023-08-21T08:57:51;4.90;;;0.80;;
48859;SDS011;34679;51.436;-2.518;2023-08-21T09:00:17;5.32;;;0.90;;
48859;SDS011;34679;51.436;-2.518;2023-08-21T09:02:45;3.45;;;0.88;;
48859;SDS011;34679;51.436;-2.518;2023-08-21T09:05:11;3.95;;;0.90;;
48859;SDS011;34679;51.436;-2.518;2023-08-21T09:07:37;3.72;;;0.68;;
48859;SDS011;34679;51.436;-2.518;2023-08-21T09:10:04;6.47;;;1.20;;
48859;SDS011;34679;51.436;-2.518;2023-08-21T09:12:37;5.38;;;1.10;;
48859;SDS011;34679;51.436;-2.518;2023-08-21T09:15:07;8.38;;;2.00;;
48859;SDS011;34679;51.436;-2.518;2023-08-21T09:17:33;3.13;;;0.95;;
48859;SDS011;34679;51.436;-2.518;2023-08-21T09:20:06;10.50;;;1.20;;
48859;SDS011;34679;51.436;-2.518;2023-08-21T09:22:35;3.47;;;1.10;;
48859;SDS011;34679;51.436;-2.518;2023-08-21T09:25:02;3.80;;;1.10;;
48859;SDS011;34679;51.436;-2.518;2023-08-21T09:27:35;5.68;;;1.10;;
48859;SDS011;34679;51.436;-2.518;2023-08-21T09:30:08;3.78;;;0.90;;
48859;SDS011;34679;51.436;-2.518;2023-08-21T09:32:52;5.30;;;0.93;;
48859;SDS011;34679;51.436;-2.518;2023-08-21T09:35:22;6.05;;;0.90;;
48859;SDS011;34679;51.436;-2.518;2023-08-21T09:37:48;4.75;;;0.85;;
48859;SDS011;34679;51.436;-2.518;2023-08-21T09:40:18;3.28;;;0.80;;
48859;SDS011;34679;51.436;-2.518;2023-08-21T09:42:44;3.95;;;1.52;;
48859;SDS011;34679;51.436;-2.518;2023-08-21T09:45:10;5.90;;;1.00;;
48859;SDS011;34679;51.436;-2.518;2023-08-21T09:47:36;3.25;;;0.85;;
48859;SDS011;34679;51.436;-2.518;2023-08-21T09:50:04;6.57;;;1.00;;
48859;SDS011;34679;51.436;-2.518;2023-08-21T09:52:30;6.78;;;1.10;;
48859;SDS011;34679;51.436;-2.518;2023-08-21T09:54:57;7.78;;;1.65;;
48859;SDS011;34679;51.436;-2.518;2023-08-21T09:57:23;5.70;;;1.15;;
48859;SDS011;34679;51.436;-2.518;2023-08-21T09:59:55;3.78;;;1.08;;
48859;SDS011;34679;51.436;-2.518;2023-08-21T10:02:21;4.47;;;0.80;;
48859;SDS011;34679;51.436;-2.518;2023-08-21T10:04:48;7.47;;;0.90;;
48859;SDS011;34679;51.436;-2.518;2023-08-21T10:07:20;4.65;;;1.20;;
48859;SDS011;34679;51.436;-2.518;2023-08-21T10:09:50;6.60;;;1.30;;
48859;SDS011;34679;51.436;-2.518;2023-08-21T10:12:16;4.30;;;0.80;;
48859;SDS011;34679;51.436;-2.518;2023-08-21T10:14:43;2.33;;;0.80;;
48859;SDS011;34679;51.436;-2.518;2023-08-21T10:17:09;2.92;;;0.88;;
48859;SDS011;34679;51.436;-2.518;2023-08-21T10:19:35;4.03;;;0.80;;
48859;SDS011;34679;51.436;-2.518;2023-08-21T10:22:01;3.53;;;0.98;;
48859;SDS011;34679;51.436;-2.518;2023-08-21T10:24:37;5.75;;;1.00;;
48859;SDS011;34679;51.436;-2.518;2023-08-21T10:27:03;2.67;;;0.98;;
48859;SDS011;34679;51.436;-2.518;2023-08-21T10:29:31;4.07;;;1.20;;
48859;SDS011;34679;51.436;-2.518;2023-08-21T10:31:58;3.20;;;0.85;;
48859;SDS011;34679;51.436;-2.518;2023-08-21T10:34:31;4.43;;;0.90;;
48859;SDS011;34679;51.436;-2.518;2023-08-21T10:37:09;1.83;;;0.80;;
48859;SDS011;34679;51.436;-2.518;2023-08-21T10:39:37;3.45;;;0.65;;
48859;SDS011;34679;51.436;-2.518;2023-08-21T10:44:54;2.88;;;1.20;;
48859;SDS011;34679;51.436;-2.518;2023-08-21T10:49:54;5.47;;;0.90;;
48859;SDS011;34679;51.436;-2.518;2023-08-21T10:52:35;3.60;;;0.93;;
48859;SDS011;34679;51.436;-2.518;2023-08-21T10:55:07;2.75;;;0.80;;
48859;SDS011;34679;51.436;-2.518;2023-08-21T10:57:34;5.53;;;0.80;;
48859;SDS011;34679;51.436;-2.518;2023-08-21T11:02:29;2.55;;;0.82;;
48859;SDS011;34679;51.436;-2.518;2023-08-21T11:04:57;4.47;;;0.77;;
48859;SDS011;34679;51.436;-2.518;2023-08-21T11:07:24;3.55;;;0.77;;
48859;SDS011;34679;51.436;-2.518;2023-08-21T11:09:50;2.10;;;0.73;;
48859;SDS011;34679;51.436;-2.518;2023-08-21T11:12:21;7.13;;;0.98;;
48859;SDS011;34679;51.436;-2.518;2023-08-21T11:14:47;3.88;;;1.00;;
48859;SDS011;34679;51.436;-2.518;2023-08-21T11:17:14;4.82;;;0.70;;
48859;SDS011;34679;51.436;-2.518;2023-08-21T11:19:40;4.75;;;1.27;;
48859;SDS011;34679;51.436;-2.518;2023-08-21T11:22:07;7.72;;;1.25;;
48859;SDS011;34679;51.436;-2.518;2023-08-21T11:24:39;2.97;;;0.75;;
48859;SDS011;34679;51.436;-2.518;2023-08-21T11:27:07;5.50;;;1.33;;
48859;SDS011;34679;51.436;-2.518;2023-08-21T11:29:38;2.28;;;0.70;;
48859;SDS011;34679;51.436;-2.518;2023-08-21T11:32:09;4.05;;;2.05;;
48859;SDS011;34679;51.436;-2.518;2023-08-21T11:34:35;2.25;;;0.82;;
48859;SDS011;34679;51.436;-2.518;2023-08-21T11:37:02;2.67;;;0.77;;
48859;SDS011;34679;51.436;-2.518;2023-08-21T11:39:41;2.35;;;0.77;;
48859;SDS011;34679;51.436;-2.518;2023-08-21T11:42:10;4.13;;;0.80;;
48859;SDS011;34679;51.436;-2.518;2023-08-21T11:44:41;5.15;;;1.00;;
48859;SDS011;34679;51.436;-2.518;2023-08-21T11:47:08;4.72;;;1.02;;
48859;SDS011;34679;51.436;-2.518;2023-08-21T11:49:36;3.65;;;1.13;;
48859;SDS011;34679;51.436;-2.518;2023-08-21T11:52:02;3.05;;;1.05;;
48859;SDS011;34679;51.436;-2.518;2023-08-21T11:54:32;3.33;;;0.50;;
48859;SDS011;34679;51.436;-2.518;2023-08-21T11:57:06;2.83;;;0.70;;
48859;SDS011;34679;51.436;-2.518;2023-08-21T11:59:39;2.00;;;0.85;;
48859;SDS011;34679;51.436;-2.518;2023-08-21T12:02:16;2.00;;;0.80;;
48859;SDS011;34679;51.436;-2.518;2023-08-21T12:04:43;3.15;;;1.15;;
48859;SDS011;34679;51.436;-2.518;2023-08-21T12:07:09;5.13;;;1.33;;
48859;SDS011;34679;51.436;-2.518;2023-08-21T12:09:36;3.83;;;0.80;;
48859;SDS011;34679;51.436;-2.518;2023-08-21T12:12:01;3.03;;;0.80;;
48859;SDS011;34679;51.436;-2.518;2023-08-21T12:14:28;1.35;;;0.80;;
48859;SDS011;34679;51.436;-2.518;2023-08-21T12:16:54;3.90;;;1.00;;
48859;SDS011;34679;51.436;-2.518;2023-08-21T12:19:22;5.50;;;1.60;;
48859;SDS011;34679;51.436;-2.518;2023-08-21T12:21:48;3.70;;;1.38;;
48859;SDS011;34679;51.436;-2.518;2023-08-21T12:24:14;3.38;;;0.98;;
48859;SDS011;34679;51.436;-2.518;2023-08-21T12:26:39;3.65;;;1.33;;
48859;SDS011;34679;51.436;-2.518;2023-08-21T12:29:05;3.70;;;1.00;;
48859;SDS011;34679;51.436;-2.518;2023-08-21T12:31:31;2.92;;;0.80;;
48859;SDS011;34679;51.436;-2.518;2023-08-21T12:33:56;1.67;;;0.70;;
48859;SDS011;34679;51.436;-2.518;2023-08-21T12:36:23;2.22;;;0.65;;
48859;SDS011;34679;51.436;-2.518;2023-08-21T12:38:49;6.45;;;0.88;;
48859;SDS011;34679;51.436;-2.518;2023-08-21T12:41:14;2.75;;;0.70;;
48859;SDS011;34679;51.436;-2.518;2023-08-21T12:43:40;3.30;;;0.95;;
48859;SDS011;34679;51.436;-2.518;2023-08-21T12:46:05;2.63;;;0.85;;
48859;SDS011;34679;51.436;-2.518;2023-08-21T12:48:31;2.25;;;0.93;;
48859;SDS011;34679;51.436;-2.518;2023-08-21T12:50:57;2.22;;;0.75;;
48859;SDS011;34679;51.436;-2.518;2023-08-21T12:53:23;3.67;;;0.90;;
48859;SDS011;34679;51.436;-2.518;2023-08-21T12:55:48;6.88;;;1.05;;
48859;SDS011;34679;51.436;-2.518;2023-08-21T12:58:14;2.05;;;0.75;;
48859;SDS011;34679;51.436;-2.518;2023-08-21T13:00:40;5.47;;;1.25;;
48859;SDS011;34679;51.436;-2.518;2023-08-21T13:03:06;4.43;;;1.15;;
48859;SDS011;34679;51.436;-2.518;2023-08-21T13:05:33;4.03;;;1.25;;
48859;SDS011;34679;51.436;-2.518;2023-08-21T13:07:59;4.53;;;1.10;;
48859;SDS011;34679;51.436;-2.518;2023-08-21T13:10:25;9.82;;;0.90;;
48859;SDS011;34679;51.436;-2.518;2023-08-21T13:12:50;5.18;;;1.00;;
48859;SDS011;34679;51.436;-2.518;2023-08-21T13:15:16;4.35;;;0.90;;
48859;SDS011;34679;51.436;-2.518;2023-08-21T13:17:42;2.70;;;1.00;;
48859;SDS011;34679;51.436;-2.518;2023-08-21T13:20:08;2.50;;;0.90;;
48859;SDS011;34679;51.436;-2.518;2023-08-21T13:22:48;5.03;;;1.27;;
48859;SDS011;34679;51.436;-2.518;2023-08-21T13:25:18;6.15;;;1.00;;
48859;SDS011;34679;51.436;-2.518;2023-08-21T13:27:45;6.50;;;1.00;;
48859;SDS011;34679;51.436;-2.518;2023-08-21T13:30:11;3.05;;;0.90;;
48859;SDS011;34679;51.436;-2.518;2023-08-21T13:32:38;4.13;;;1.30;;
48859;SDS011;34679;51.436;-2.518;2023-08-21T13:35:03;2.92;;;1.00;;
48859;SDS011;34679;51.436;-2.518;2023-08-21T13:37:37;1.92;;;0.95;;
48859;SDS011;34679;51.436;-2.518;2023-08-21T13:40:03;3.15;;;0.88;;
48859;SDS011;34679;51.436;-2.518;2023-08-21T13:42:39;6.57;;;0.90;;
48859;SDS011;34679;51.436;-2.518;2023-08-21T13:45:09;1.65;;;0.80;;
48859;SDS011;34679;51.436;-2.518;2023-08-21T13:47:43;3.10;;;0.90;;
48859;SDS011;34679;51.436;-2.518;2023-08-21T13:50:13;3.92;;;1.00;;
48859;SDS011;34679;51.436;-2.518;2023-08-21T13:52:39;3.33;;;0.90;;
48859;SDS011;34679;51.436;-2.518;2023-08-21T13:55:06;3.05;;;1.00;;
48859;SDS011;34679;51.436;-2.518;2023-08-21T13:57:32;2.70;;;0.90;;
48859;SDS011;34679;51.436;-2.518;2023-08-21T14:00:01;6.00;;;1.30;;
48859;SDS011;34679;51.436;-2.518;2023-08-21T14:02:32;3.33;;;1.00;;
48859;SDS011;34679;51.436;-2.518;2023-08-21T14:04:59;1.50;;;0.70;;
48859;SDS011;34679;51.436;-2.518;2023-08-21T14:07:25;6.00;;;0.90;;
48859;SDS011;34679;51.436;-2.518;2023-08-21T14:09:51;1.48;;;0.77;;
48859;SDS011;34679;51.436;-2.518;2023-08-21T14:12:17;3.13;;;0.90;;
48859;SDS011;34679;51.436;-2.518;2023-08-21T14:14:43;3.97;;;1.40;;
48859;SDS011;34679;51.436;-2.518;2023-08-21T14:17:09;3.22;;;0.98;;
48859;SDS011;34679;51.436;-2.518;2023-08-21T14:19:35;7.35;;;1.20;;
48859;SDS011;34679;51.436;-2.518;2023-08-21T14:22:01;2.42;;;0.90;;
48859;SDS011;34679;51.436;-2.518;2023-08-21T14:24:28;3.75;;;1.52;;
48859;SDS011;34679;51.436;-2.518;2023-08-21T14:26:54;6.05;;;1.00;;
48859;SDS011;34679;51.436;-2.518;2023-08-21T14:29:19;3.58;;;1.15;;
48859;SDS011;34679;51.436;-2.518;2023-08-21T14:31:45;4.72;;;1.33;;
48859;SDS011;34679;51.436;-2.518;2023-08-21T14:34:12;4.95;;;1.10;;
48859;SDS011;34679;51.436;-2.518;2023-08-21T14:36:38;2.22;;;0.95;;
48859;SDS011;34679;51.436;-2.518;2023-08-21T14:39:04;6.63;;;2.17;;
48859;SDS011;34679;51.436;-2.518;2023-08-21T14:41:29;3.35;;;0.85;;
48859;SDS011;34679;51.436;-2.518;2023-08-21T14:43:55;6.78;;;1.10;;